Time;durP1;ratioP1;P1;durP2;ratioP2;P2;SDS_P1;SDS_P2;PMS_P1;PMS_P2;Temp;Humidity;BMP_temperature;BMP_pressure;BME280_temperature;BME280_humidity;BME280_pressure;Samples;Min_cycle;Max_cycle;Signal;HPM_P1;HPM_P2
2023/06/05 00:06:20;;;;;;;4.30;2.10;;;17.80;44.90;;;;;;20912408;28;20207;-59
2023/06/05 00:16:22;;;;;;;2.00;1.70;;;17.60;45.40;;;;;;20911822;28;20329;-59
2023/06/05 00:26:24;;;;;;;8.40;2.17;;;17.40;45.70;;;;;;20925796;28;20689;-68
2023/06/05 00:36:27;;;;;;;5.33;2.03;;;17.10;46.10;;;;;;20885791;28;20561;-68
2023/06/05 00:46:29;;;;;;;3.70;1.97;;;16.90;46.40;;;;;;20843839;28;20242;-69
2023/06/05 00:56:35;;;;;;;2.90;1.90;;;16.70;46.70;;;;;;20843160;28;20245;-68
2023/06/05 01:06:41;;;;;;;2.53;2.10;;;16.60;47.10;;;;;;20843117;28;20250;-69
2023/06/05 01:16:47;;;;;;;6.67;2.03;;;16.40;47.30;;;;;;20841764;28;20240;-67
2023/06/05 01:27:07;;;;;;;2.03;1.67;;;16.20;47.50;;;;;;20841175;28;20253;-69
2023/06/05 01:37:14;;;;;;;4.03;1.80;;;16.10;48.10;;;;;;20887456;28;20247;-69
2023/06/05 01:47:16;;;;;;;2.93;2.00;;;15.80;48.40;;;;;;20922012;28;20319;-69
2023/06/05 01:57:17;;;;;;;4.43;2.00;;;15.60;48.50;;;;;;20921160;28;20707;-69
2023/06/05 02:07:21;;;;;;;3.97;1.90;;;15.50;48.90;;;;;;20920736;28;20666;-69
2023/06/05 02:17:24;;;;;;;2.90;1.80;;;15.50;49.10;;;;;;20920183;28;20334;-68
2023/06/05 02:27:26;;;;;;;4.40;1.90;;;15.40;49.40;;;;;;20919056;28;20205;-67
2023/06/05 02:37:36;;;;;;;3.17;2.00;;;15.20;49.50;;;;;;20868156;28;20580;-68
2023/06/05 02:47:38;;;;;;;2.37;2.10;;;15.20;49.80;;;;;;20834530;28;20236;-66
2023/06/05 02:57:43;;;;;;;2.30;1.90;;;15.00;50.30;;;;;;20835202;28;20233;-68
2023/06/05 03:07:44;;;;;;;9.23;2.07;;;14.80;50.90;;;;;;20833864;28;20306;-67
2023/06/05 03:17:47;;;;;;;5.20;2.00;;;14.70;51.30;;;;;;20832541;28;20243;-68
2023/06/05 03:27:49;;;;;;;5.50;2.30;;;14.60;51.50;;;;;;20832061;28;20216;-67
2023/06/05 03:37:51;;;;;;;4.20;2.10;;;14.50;51.80;;;;;;20884666;28;20224;-68
2023/06/05 03:47:53;;;;;;;3.20;2.13;;;14.30;52.00;;;;;;20913521;28;20740;-68
2023/06/05 03:57:56;;;;;;;7.33;2.10;;;14.30;52.20;;;;;;20912048;28;20243;-68
2023/06/05 04:07:58;;;;;;;6.17;2.20;;;14.40;52.20;;;;;;20912787;28;20705;-59
2023/06/05 04:18:00;;;;;;;9.60;3.00;;;14.40;52.30;;;;;;20912223;28;20242;-66
2023/06/05 04:28:03;;;;;;;8.40;2.53;;;14.50;52.20;;;;;;20911621;28;20239;-65
2023/06/05 04:38:04;;;;;;;3.93;2.50;;;14.70;52.30;;;;;;20856170;28;20208;-67
2023/06/05 04:48:06;;;;;;;3.40;2.23;;;14.90;52.30;;;;;;20828865;28;20322;-64
2023/06/05 04:58:08;;;;;;;13.90;2.50;;;15.10;52.40;;;;;;20827867;28;20220;-68
2023/06/05 05:08:10;;;;;;;16.93;2.50;;;15.30;52.10;;;;;;20833120;28;20726;-68
2023/06/05 05:18:11;;;;;;;7.23;2.30;;;15.60;51.60;;;;;;20842085;28;20209;-69
2023/06/05 05:28:13;;;;;;;4.73;2.50;;;15.80;50.80;;;;;;20841386;28;20205;-66
2023/06/05 05:38:16;;;;;;;16.13;3.23;;;16.00;50.20;;;;;;20899151;28;20294;-68
2023/06/05 05:48:17;;;;;;;17.30;3.00;;;16.40;49.70;;;;;;20923036;28;20318;-59
2023/06/05 05:58:19;;;;;;;12.37;2.60;;;16.80;49.00;;;;;;20921146;28;20215;-60
2023/06/05 06:08:21;;;;;;;14.83;2.63;;;17.30;48.40;;;;;;20921049;28;20240;-60
2023/06/05 06:18:23;;;;;;;7.93;2.57;;;17.60;47.80;;;;;;20918831;28;20213;-59
2023/06/05 06:28:25;;;;;;;11.93;2.23;;;18.10;47.20;;;;;;20918240;28;20300;-59
2023/06/05 06:38:30;;;;;;;7.93;2.47;;;18.40;46.90;;;;;;20860043;28;20206;-59
2023/06/05 06:48:32;;;;;;;3.77;2.33;;;18.70;46.60;;;;;;20834176;28;20235;-59
2023/06/05 06:58:35;;;;;;;8.73;2.07;;;19.10;46.40;;;;;;20833600;28;20216;-59
2023/06/05 07:08:37;;;;;;;8.60;2.13;;;19.50;45.70;;;;;;20833333;28;20274;-60
2023/06/05 07:18:40;;;;;;;4.83;1.57;;;19.90;44.80;;;;;;20832205;28;20210;-60
2023/06/05 07:28:42;;;;;;;4.20;1.87;;;20.30;43.90;;;;;;20831188;28;20240;-59
2023/06/05 07:38:44;;;;;;;5.70;1.97;;;20.60;43.30;;;;;;20891692;28;20573;-65
2023/06/05 07:48:45;;;;;;;4.00;1.97;;;20.90;43.00;;;;;;20912850;28;20239;-63
2023/06/05 07:58:47;;;;;;;7.00;2.00;;;21.10;42.80;;;;;;20912521;28;20208;-62
2023/06/05 08:08:51;;;;;;;4.87;2.30;;;21.40;42.40;;;;;;20912154;28;20240;-69
2023/06/05 08:18:52;;;;;;;2.97;2.20;;;21.60;42.20;;;;;;20912575;28;20583;-68
2023/06/05 08:28:54;;;;;;;4.13;1.70;;;21.80;42.10;;;;;;20911605;28;20318;-59
2023/06/05 08:38:56;;;;;;;4.47;2.00;;;22.00;41.70;;;;;;20849060;28;20197;-60
2023/06/05 08:49:07;;;;;;;6.50;2.90;;;22.30;41.60;;;;;;20843790;28;20339;-59
2023/06/05 08:59:14;;;;;;;8.43;2.77;;;22.50;41.30;;;;;;20843694;28;20691;-64
2023/06/05 09:09:16;;;;;;;5.80;2.00;;;22.80;40.40;;;;;;20842631;28;20283;-60
2023/06/05 09:19:24;;;;;;;2.93;2.20;;;23.10;39.50;;;;;;20841684;28;20482;-61
2023/06/05 09:29:30;;;;;;;10.27;2.23;;;23.30;38.90;;;;;;20840867;28;20294;-60
2023/06/05 09:39:37;;;;;;;10.17;2.30;;;23.60;38.40;;;;;;20907733;28;20235;-60
2023/06/05 09:49:42;;;;;;;4.30;2.77;;;23.70;37.10;;;;;;20969610;28;20242;-66
2023/06/05 09:59:51;;;;;;;3.00;2.10;;;23.80;35.30;;;;;;21003041;28;20207;-66
2023/06/05 10:09:54;;;;;;;6.50;2.00;;;23.90;34.20;;;;;;21003414;28;20238;-66
2023/06/05 10:19:57;;;;;;;2.37;2.03;;;24.20;34.20;;;;;;21003257;28;20210;-69
2023/06/05 10:30:17;;;;;;;27.43;2.27;;;24.20;34.20;;;;;;21001272;28;20242;-67
2023/06/05 10:40:20;;;;;;;4.80;2.10;;;24.40;34.20;;;;;;20926661;28;20247;-59
2023/06/05 10:50:24;;;;;;;2.30;2.10;;;24.50;34.20;;;;;;20916921;28;20258;-71
2023/06/05 11:00:30;;;;;;;12.13;2.07;;;24.70;34.00;;;;;;20917207;28;20239;-69
2023/06/05 11:10:32;;;;;;;3.40;1.90;;;24.90;33.60;;;;;;20914891;28;20239;-60
2023/06/05 11:20:33;;;;;;;3.37;2.07;;;24.90;33.50;;;;;;20915362;28;20215;-60
2023/06/05 11:30:44;;;;;;;4.43;2.50;;;25.10;33.30;;;;;;20914456;28;20253;-59
2023/06/05 11:40:50;;;;;;;10.27;7.13;;;25.30;32.80;;;;;;20991319;28;20207;-59
2023/06/05 11:51:03;;;;;;;6.57;4.50;;;25.40;32.60;;;;;;20995807;28;20239;-60
2023/06/05 12:01:06;;;;;;;4.90;2.67;;;25.60;32.50;;;;;;20995450;28;20246;-60
2023/06/05 12:11:27;;;;;;;6.03;3.20;;;25.80;31.50;;;;;;20994682;28;20596;-65
2023/06/05 12:21:29;;;;;;;15.37;8.87;;;26.10;30.70;;;;;;21007750;28;20211;-65
2023/06/05 12:31:36;;;;;;;13.70;6.47;;;26.20;30.60;;;;;;21009417;28;20263;-64
2023/06/05 12:41:38;;;;;;;35.27;24.67;;;26.50;31.20;;;;;;20927438;28;20349;-59
2023/06/05 12:51:39;;;;;;;6.80;4.90;;;26.60;31.50;;;;;;20926916;28;20732;-65
2023/06/05 13:01:41;;;;;;;11.33;2.93;;;26.50;31.60;;;;;;20925581;28;20235;-69
2023/06/05 13:11:43;;;;;;;10.33;2.60;;;26.60;31.50;;;;;;20924793;28;20282;-59
2023/06/05 13:21:45;;;;;;;3.00;2.40;;;26.60;31.20;;;;;;20924421;28;20663;-63
2023/06/05 13:31:47;;;;;;;6.87;3.07;;;26.70;31.30;;;;;;20907983;28;20313;-60
2023/06/05 13:41:49;;;;;;;7.73;4.90;;;26.90;31.00;;;;;;21005900;28;20218;-65
2023/06/05 13:51:50;;;;;;;16.60;5.03;;;27.00;30.80;;;;;;21005309;28;20337;-68
2023/06/05 14:01:53;;;;;;;3.60;3.00;;;27.30;31.00;;;;;;21005128;28;20204;-63
2023/06/05 14:11:56;;;;;;;5.00;3.10;;;27.50;30.40;;;;;;21002765;28;20570;-68
2023/06/05 14:21:58;;;;;;;4.55;2.97;;;27.80;30.20;;;;;;21002424;28;20235;-59
2023/06/05 14:31:59;;;;;;;5.20;2.92;;;30.10;29.80;;;;;;20996255;28;20266;-64
2023/06/05 14:42:01;;;;;;;7.97;3.10;;;30.40;29.60;;;;;;20917677;28;20659;-62
2023/06/05 14:52:05;;;;;;;4.40;2.92;;;30.90;29.70;;;;;;20899861;28;20328;-61
2023/06/05 15:02:07;;;;;;;4.32;2.90;;;31.00;29.80;;;;;;20916247;28;20295;-60
2023/06/05 15:12:09;;;;;;;6.97;3.40;;;32.10;29.40;;;;;;20915512;28;20235;-60
2023/06/05 15:22:12;;;;;;;5.35;3.08;;;32.60;29.50;;;;;;20915424;28;20210;-60
2023/06/05 15:32:14;;;;;;;5.30;3.38;;;34.70;28.70;;;;;;20920933;28;20227;-61
2023/06/05 15:42:32;;;;;;;4.85;3.17;;;32.90;29.80;;;;;;20996828;28;20646;-61
2023/06/05 15:52:36;;;;;;;6.13;3.50;;;32.10;30.80;;;;;;20996632;28;20239;-68
2023/06/05 16:02:38;;;;;;;6.15;3.25;;;29.80;33.20;;;;;;20996072;28;20207;-62
2023/06/05 16:12:40;;;;;;;4.35;3.00;;;32.10;32.20;;;;;;20977561;28;20239;-62
2023/06/05 16:22:43;;;;;;;4.97;2.92;;;37.00;28.60;;;;;;20995363;28;20296;-60
2023/06/05 16:32:46;;;;;;;4.32;3.50;;;37.70;28.00;;;;;;20983225;28;20249;-70
2023/06/05 16:42:48;;;;;;;5.15;3.63;;;32.70;31.40;;;;;;20911468;28;20250;-63
2023/06/05 16:52:49;;;;;;;4.63;3.75;;;31.60;32.70;;;;;;20910898;28;20758;-60
2023/06/05 17:02:51;;;;;;;9.52;3.47;;;32.60;32.30;;;;;;20915230;28;20240;-60
2023/06/05 17:12:53;;;;;;;5.72;3.20;;;34.00;30.70;;;;;;20925315;28;20231;-60
2023/06/05 17:22:55;;;;;;;44.72;6.20;;;37.80;28.70;;;;;;20924848;28;20210;-61
2023/06/05 17:32:57;;;;;;;8.10;4.07;;;35.80;30.70;;;;;;20936257;28;20242;-60
2023/06/05 17:42:58;;;;;;;8.15;4.00;;;35.30;35.80;;;;;;21006062;28;20203;-60
2023/06/05 17:53:00;;;;;;;7.53;4.72;;;32.60;41.80;;;;;;21004965;28;20246;-60
2023/06/05 18:03:02;;;;;;;10.00;5.22;;;29.40;48.10;;;;;;21004285;28;20210;-61
2023/06/05 18:13:05;;;;;;;8.63;5.17;;;27.50;52.10;;;;;;21002983;28;20596;-65
2023/06/05 18:23:06;;;;;;;10.90;5.40;;;26.00;56.00;;;;;;21002587;28;20235;-61
2023/06/05 18:33:11;;;;;;;7.90;4.50;;;24.90;58.50;;;;;;20987466;28;20238;-69
2023/06/05 18:43:12;;;;;;;9.43;4.30;;;24.50;55.50;;;;;;20918320;28;20210;-67
2023/06/05 18:53:14;;;;;;;8.93;4.00;;;24.20;54.20;;;;;;20918012;28;20334;-66
2023/06/05 19:03:16;;;;;;;5.50;4.37;;;23.90;53.70;;;;;;20921900;28;20203;-69
2023/06/05 19:13:18;;;;;;;8.30;3.70;;;23.60;53.00;;;;;;20898282;28;20234;-66
2023/06/05 19:23:20;;;;;;;5.50;3.80;;;23.40;52.90;;;;;;20915301;28;20277;-64
2023/06/05 19:33:21;;;;;;;9.57;4.00;;;23.20;53.10;;;;;;20930396;28;20231;-60
2023/06/05 19:43:23;;;;;;;7.40;3.50;;;23.10;53.20;;;;;;20996598;28;20211;-68
2023/06/05 19:53:25;;;;;;;5.00;3.57;;;22.90;53.00;;;;;;20996098;28;20672;-68
2023/06/05 20:03:27;;;;;;;4.43;3.60;;;22.80;53.00;;;;;;20996152;28;20678;-61
2023/06/05 20:13:28;;;;;;;5.43;4.23;;;22.60;52.80;;;;;;20995694;28;20231;-62
2023/06/05 20:23:32;;;;;;;7.10;4.30;;;22.50;52.70;;;;;;20994750;28;20214;-60
2023/06/05 20:33:33;;;;;;;4.97;3.83;;;22.40;52.70;;;;;;20976737;28;20228;-65
2023/06/05 20:43:35;;;;;;;5.33;3.80;;;22.30;52.80;;;;;;20925400;28;20210;-66
2023/06/05 20:53:37;;;;;;;5.70;3.90;;;22.10;52.70;;;;;;20926924;28;20242;-66
2023/06/05 21:03:39;;;;;;;7.60;4.40;;;22.00;52.70;;;;;;20926781;28;20588;-66
2023/06/05 21:13:41;;;;;;;4.20;3.70;;;21.80;52.60;;;;;;20924357;28;20238;-66
2023/06/05 21:23:42;;;;;;;4.67;3.50;;;21.60;52.70;;;;;;20924686;28;20283;-65
2023/06/05 21:33:44;;;;;;;5.37;3.77;;;21.40;52.90;;;;;;20943766;28;20238;-66
2023/06/05 21:43:46;;;;;;;7.97;3.90;;;21.20;53.20;;;;;;21006228;28;20294;-67
2023/06/05 21:53:48;;;;;;;5.00;3.90;;;21.10;53.60;;;;;;21006531;28;20243;-62
2023/06/05 22:03:50;;;;;;;5.70;4.40;;;21.10;54.00;;;;;;21004834;28;20291;-59
2023/06/05 22:13:52;;;;;;;3.93;3.53;;;20.90;54.50;;;;;;21003606;28;20239;-62
2023/06/05 22:23:57;;;;;;;4.67;3.50;;;20.80;55.00;;;;;;21003710;28;20214;-61
2023/06/05 22:33:59;;;;;;;4.57;3.90;;;20.60;55.80;;;;;;20980677;28;20232;-60
2023/06/05 22:44:01;;;;;;;4.10;3.70;;;20.40;56.60;;;;;;20918268;28;20258;-67
2023/06/05 22:54:03;;;;;;;3.97;3.50;;;20.20;56.90;;;;;;20917773;28;20329;-64
2023/06/05 23:04:06;;;;;;;6.87;3.83;;;20.00;57.30;;;;;;20916034;28;20543;-61
2023/06/05 23:14:07;;;;;;;5.47;4.10;;;19.80;57.70;;;;;;20915982;28;20326;-60
2023/06/05 23:24:09;;;;;;;5.07;4.17;;;19.70;57.90;;;;;;20915196;28;20210;-60
2023/06/05 23:34:12;;;;;;;5.67;4.00;;;19.50;58.20;;;;;;20938259;28;20232;-60
2023/06/05 23:44:15;;;;;;;5.57;4.03;;;19.40;58.60;;;;;;20996906;28;20626;-59
2023/06/05 23:54:20;;;;;;;7.80;4.13;;;19.40;59.00;;;;;;20996491;28;20546;-59
